createdAt,value
2022-09-28T00:01:24.929Z,100.00
2022-09-28T00:03:58.823Z,100.00
2022-09-28T00:06:31.982Z,100.00
2022-09-28T00:09:06.653Z,100.00
2022-09-28T00:11:39.210Z,100.00
2022-09-28T00:14:13.525Z,100.00
2022-09-28T00:16:46.678Z,100.00
2022-09-28T00:19:19.268Z,100.00
2022-09-28T00:21:51.655Z,100.00
2022-09-28T00:24:27.654Z,100.00
2022-09-28T00:27:01.576Z,100.00
2022-09-28T00:29:35.847Z,100.00
2022-09-28T00:32:11.855Z,100.00
2022-09-28T00:34:46.157Z,100.00
2022-09-28T00:37:22.086Z,100.00
2022-09-28T00:39:55.270Z,100.00
2022-09-28T00:42:28.015Z,100.00
2022-09-28T00:45:01.657Z,100.00
2022-09-28T00:47:52.822Z,100.00
2022-09-28T00:50:35.522Z,100.00
2022-09-28T00:53:30.918Z,100.00
2022-09-28T00:56:14.379Z,100.00
2022-09-28T00:58:49.642Z,100.00
2022-09-28T01:01:22.602Z,100.00
2022-09-28T01:03:55.247Z,100.00
2022-09-28T01:06:31.214Z,100.00
2022-09-28T01:09:07.123Z,100.00
2022-09-28T01:11:40.558Z,100.00
2022-09-28T01:14:14.783Z,100.00
2022-09-28T01:17:11.132Z,100.00
2022-09-28T01:20:08.258Z,100.00
2022-09-28T01:23:17.609Z,100.00
2022-09-28T01:26:13.261Z,100.00
2022-09-28T01:28:46.266Z,100.00
2022-09-28T01:31:18.730Z,100.00
2022-09-28T01:34:01.862Z,100.00
2022-09-28T01:36:54.256Z,100.00
2022-09-28T01:39:37.133Z,100.00
2022-09-28T01:42:14.253Z,100.00
2022-09-28T01:44:47.825Z,100.00
2022-09-28T01:47:22.615Z,100.00
2022-09-28T01:50:18.219Z,100.00
2022-09-28T01:52:58.724Z,100.00
2022-09-28T01:55:45.335Z,100.00
2022-09-28T01:58:40.675Z,100.00
2022-09-28T02:01:18.825Z,100.00
2022-09-28T02:03:55.616Z,100.00
2022-09-28T02:06:46.154Z,100.00
2022-09-28T02:09:34.017Z,100.00
2022-09-28T02:12:18.517Z,100.00
2022-09-28T02:14:52.292Z,100.00
2022-09-28T02:17:25.973Z,100.00
2022-09-28T02:19:58.762Z,100.00
2022-09-28T02:22:38.451Z,100.00
2022-09-28T02:25:39.700Z,100.00
2022-09-28T02:28:20.193Z,100.00
2022-09-28T02:30:54.408Z,100.00
2022-09-28T02:33:39.029Z,100.00
2022-09-28T02:36:11.103Z,100.00
2022-09-28T02:38:44.427Z,100.00
2022-09-28T02:41:27.902Z,100.00
2022-09-28T02:44:48.948Z,100.00
2022-09-28T02:47:52.223Z,100.00
2022-09-28T02:50:39.421Z,100.00
2022-09-28T02:53:35.036Z,100.00
2022-09-28T02:56:42.608Z,100.00
2022-09-28T02:59:56.948Z,100.00
2022-09-28T03:02:43.027Z,100.00
2022-09-28T03:05:55.530Z,100.00
2022-09-28T03:08:36.585Z,100.00
2022-09-28T03:11:17.763Z,100.00
2022-09-28T03:13:53.410Z,100.00
2022-09-28T03:16:28.753Z,100.00
2022-09-28T03:19:02.391Z,100.00
2022-09-28T03:21:36.895Z,100.00
2022-09-28T03:24:10.831Z,100.00
2022-09-28T03:26:43.241Z,100.00
2022-09-28T03:29:17.718Z,100.00
2022-09-28T03:31:51.531Z,100.00
2022-09-28T03:34:24.442Z,100.00
2022-09-28T03:36:58.834Z,100.00
2022-09-28T03:39:31.297Z,100.00
2022-09-28T03:42:04.413Z,100.00
2022-09-28T03:44:39.133Z,100.00
2022-09-28T03:47:11.582Z,100.00
2022-09-28T03:49:44.186Z,100.00
2022-09-28T03:52:17.108Z,100.00
2022-09-28T03:54:49.798Z,100.00
2022-09-28T03:57:22.467Z,100.00
2022-09-28T03:59:55.004Z,100.00
2022-09-28T04:02:28.476Z,100.00
2022-09-28T04:05:01.288Z,100.00
2022-09-28T04:07:34.900Z,100.00
2022-09-28T04:10:10.022Z,100.00
2022-09-28T04:12:42.982Z,100.00
2022-09-28T04:15:16.841Z,100.00
2022-09-28T04:17:49.568Z,100.00
2022-09-28T04:20:23.788Z,100.00
2022-09-28T04:23:07.051Z,100.00
2022-09-28T04:25:40.364Z,100.00
2022-09-28T04:28:30.836Z,100.00
2022-09-28T04:31:03.567Z,100.00
2022-09-28T04:33:36.919Z,100.00
2022-09-28T04:38:54.937Z,100.00
2022-09-28T04:41:29.037Z,100.00
2022-09-28T04:44:02.238Z,100.00
2022-09-28T04:46:35.837Z,100.00
2022-09-28T04:49:27.551Z,100.00
2022-09-28T04:52:02.907Z,100.00
2022-09-28T04:54:36.066Z,100.00
2022-09-28T04:57:08.618Z,100.00
2022-09-28T04:59:42.678Z,100.00
2022-09-28T05:02:15.935Z,100.00
2022-09-28T05:04:59.193Z,100.00
2022-09-28T05:07:36.479Z,100.00
2022-09-28T05:10:10.832Z,100.00
2022-09-28T05:12:44.773Z,100.00
2022-09-28T05:15:19.186Z,100.00
2022-09-28T05:17:54.991Z,100.00
2022-09-28T05:20:32.133Z,100.00
2022-09-28T05:23:04.678Z,100.00
2022-09-28T05:25:37.679Z,100.00
2022-09-28T05:28:11.465Z,100.00
2022-09-28T05:30:45.773Z,100.00
2022-09-28T05:33:37.534Z,100.00
2022-09-28T05:36:19.067Z,100.00
2022-09-28T05:38:53.436Z,100.00
2022-09-28T05:41:26.356Z,100.00
2022-09-28T05:43:59.248Z,100.00
2022-09-28T05:46:31.804Z,100.00
2022-09-28T05:49:05.722Z,100.00
2022-09-28T05:51:39.445Z,100.00
2022-09-28T05:54:13.598Z,100.00
2022-09-28T05:56:48.833Z,100.00
2022-09-28T05:59:22.587Z,100.00
2022-09-28T06:01:56.066Z,100.00
2022-09-28T06:04:29.517Z,100.00
2022-09-28T06:07:02.009Z,100.00
2022-09-28T06:09:34.558Z,100.00
2022-09-28T06:12:08.170Z,100.00
2022-09-28T06:14:46.888Z,100.00
2022-09-28T06:17:19.304Z,100.00
2022-09-28T06:19:54.392Z,100.00
2022-09-28T06:22:32.675Z,100.00
2022-09-28T06:25:10.930Z,100.00
2022-09-28T06:27:44.865Z,100.00
2022-09-28T06:30:18.055Z,100.00
2022-09-28T06:32:56.500Z,100.00
2022-09-28T06:35:31.318Z,100.00
2022-09-28T06:38:04.633Z,100.00
2022-09-28T06:40:38.819Z,100.00
2022-09-28T06:43:16.395Z,100.00
2022-09-28T06:46:08.630Z,100.00
2022-09-28T06:48:57.580Z,100.00
2022-09-28T06:51:38.391Z,100.00
2022-09-28T06:54:12.654Z,100.00
2022-09-28T06:56:46.680Z,100.00
2022-09-28T06:59:19.674Z,100.00
2022-09-28T07:01:53.880Z,100.00
2022-09-28T07:04:28.452Z,100.00
2022-09-28T07:07:13.834Z,100.00
2022-09-28T07:09:55.261Z,100.00
2022-09-28T07:12:37.387Z,100.00
2022-09-28T07:15:12.447Z,100.00
2022-09-28T07:17:59.322Z,100.00
2022-09-28T07:20:20.961Z,100.00
2022-09-28T07:23:13.781Z,100.00
2022-09-28T07:25:41.205Z,100.00
2022-09-28T07:28:15.334Z,100.00
2022-09-28T07:30:49.438Z,100.00
2022-09-28T07:33:25.204Z,100.00
2022-09-28T07:36:01.418Z,100.00
2022-09-28T07:38:35.471Z,100.00
2022-09-28T07:41:16.140Z,100.00
2022-09-28T07:43:50.510Z,100.00
2022-09-28T07:46:24.270Z,100.00
2022-09-28T07:48:58.523Z,100.00
2022-09-28T07:51:36.178Z,100.00
2022-09-28T07:54:27.657Z,100.00
2022-09-28T07:57:05.952Z,100.00
2022-09-28T07:59:40.283Z,100.00
2022-09-28T08:02:33.211Z,100.00
2022-09-28T08:05:08.395Z,100.00
2022-09-28T08:07:44.688Z,100.00
2022-09-28T08:10:17.583Z,100.00
2022-09-28T08:13:00.550Z,100.00
2022-09-28T08:15:51.776Z,100.00
2022-09-28T08:18:26.965Z,100.00
2022-09-28T08:21:18.065Z,100.00
2022-09-28T08:23:50.695Z,100.00
2022-09-28T08:26:24.677Z,99.38
2022-09-28T08:28:57.915Z,96.74
2022-09-28T08:31:41.397Z,94.40
2022-09-28T08:34:16.278Z,91.92
2022-09-28T08:37:00.764Z,90.16
2022-09-28T08:39:38.784Z,85.91
2022-09-28T08:42:21.005Z,84.16
2022-09-28T08:45:16.809Z,83.71
2022-09-28T08:48:32.763Z,83.32
2022-09-28T08:51:34.763Z,82.87
2022-09-28T08:54:20.199Z,82.24
2022-09-28T08:57:10.281Z,82.24
2022-09-28T08:59:54.790Z,81.92
2022-09-28T09:02:39.291Z,81.69
2022-09-28T09:05:27.219Z,81.82
2022-09-28T09:08:39.261Z,81.54
2022-09-28T09:11:38.749Z,80.93
2022-09-28T09:15:00.114Z,80.81
2022-09-28T09:17:53.175Z,81.10
2022-09-28T09:20:50.982Z,80.82
2022-09-28T09:23:56.652Z,79.95
2022-09-28T09:26:37.321Z,79.38
2022-09-28T09:29:53.242Z,78.91
2022-09-28T09:32:59.323Z,78.23
2022-09-28T09:36:02.730Z,77.73
2022-09-28T09:38:49.807Z,77.59
2022-09-28T09:41:59.623Z,77.03
2022-09-28T09:45:32.047Z,77.14
2022-09-28T09:48:23.021Z,77.08
2022-09-28T09:51:00.166Z,76.71
2022-09-28T09:53:43.303Z,75.97
2022-09-28T09:56:41.607Z,75.52
2022-09-28T09:59:37.812Z,74.71
2022-09-28T10:02:30.771Z,74.84
2022-09-28T10:05:22.202Z,74.37
2022-09-28T10:08:07.966Z,74.23
2022-09-28T10:10:57.826Z,73.96
2022-09-28T10:13:33.106Z,74.14
2022-09-28T10:16:08.472Z,74.05
2022-09-28T10:18:42.860Z,73.96
2022-09-28T10:21:35.908Z,74.11
2022-09-28T10:24:21.142Z,74.07
2022-09-28T10:26:55.868Z,74.05
2022-09-28T10:29:29.219Z,74.24
2022-09-28T10:32:03.074Z,74.58
2022-09-28T10:34:38.346Z,74.21
2022-09-28T10:37:15.565Z,74.47
2022-09-28T10:39:58.680Z,74.80
2022-09-28T10:42:35.815Z,75.75
2022-09-28T10:45:24.337Z,76.50
2022-09-28T10:47:56.781Z,76.69
2022-09-28T10:50:30.273Z,77.56
2022-09-28T10:53:40.120Z,77.99
2022-09-28T10:56:24.351Z,77.86
2022-09-28T10:58:59.373Z,78.67
2022-09-28T11:01:34.628Z,79.26
2022-09-28T11:04:10.885Z,79.05
2022-09-28T11:06:43.583Z,78.99
2022-09-28T11:09:31.119Z,79.02
2022-09-28T11:12:06.993Z,78.68
2022-09-28T11:14:43.819Z,78.21
2022-09-28T11:17:41.865Z,78.17
2022-09-28T11:20:33.219Z,78.32
2022-09-28T11:23:28.128Z,78.09
2022-09-28T11:26:07.924Z,78.23
2022-09-28T11:28:43.263Z,78.69
2022-09-28T11:31:18.719Z,78.81
2022-09-28T11:33:54.142Z,78.94
2022-09-28T11:37:18.653Z,79.05
2022-09-28T11:40:17.508Z,78.86
2022-09-28T11:43:24.314Z,79.11
2022-09-28T11:46:05.075Z,79.06
2022-09-28T11:48:48.974Z,79.30
2022-09-28T11:51:26.207Z,79.09
2022-09-28T11:54:14.523Z,79.34
2022-09-28T11:56:49.593Z,79.48
2022-09-28T11:59:40.299Z,79.83
2022-09-28T12:02:20.858Z,79.95
2022-09-28T12:05:15.967Z,80.65
2022-09-28T12:08:04.490Z,81.25
2022-09-28T12:11:21.781Z,81.77
2022-09-28T12:13:59.442Z,82.28
2022-09-28T12:17:04.347Z,82.44
2022-09-28T12:19:34.815Z,82.52
2022-09-28T12:22:20.807Z,82.69
2022-09-28T12:24:55.530Z,82.78
2022-09-28T12:27:45.688Z,83.05
2022-09-28T12:30:24.895Z,83.03
2022-09-28T12:33:16.343Z,82.99
2022-09-28T12:36:05.569Z,82.95
2022-09-28T12:39:14.668Z,82.69
2022-09-28T12:42:00.232Z,82.47
2022-09-28T12:44:43.977Z,82.76
2022-09-28T12:47:29.841Z,83.06
2022-09-28T12:50:39.517Z,83.49
2022-09-28T12:53:24.692Z,84.48
2022-09-28T12:56:22.094Z,85.89
2022-09-28T12:59:23.727Z,87.14
2022-09-28T13:02:42.161Z,88.31
2022-09-28T13:05:57.429Z,89.15
2022-09-28T13:08:40.442Z,89.80
2022-09-28T13:11:33.303Z,90.12
2022-09-28T13:14:29.608Z,90.26
2022-09-28T13:17:09.598Z,90.85
2022-09-28T13:20:07.629Z,91.37
2022-09-28T13:23:06.109Z,91.88
2022-09-28T13:25:47.989Z,92.37
2022-09-28T13:28:26.226Z,93.02
2022-09-28T13:33:36.407Z,93.97
2022-09-28T13:36:51.193Z,94.74
2022-09-28T13:39:51.133Z,95.56
2022-09-28T13:42:40.928Z,96.40
2022-09-28T13:45:32.724Z,97.20
2022-09-28T13:48:21.340Z,97.98
2022-09-28T13:51:10.965Z,98.91
2022-09-28T13:54:21.600Z,99.49
2022-09-28T13:56:59.083Z,100.00
2022-09-28T13:59:32.099Z,100.00
2022-09-28T14:02:32.223Z,100.00
2022-09-28T14:05:08.158Z,100.00
2022-09-28T14:07:45.786Z,100.00
2022-09-28T14:10:24.856Z,100.00
2022-09-28T14:12:58.102Z,100.00
2022-09-28T14:15:41.627Z,100.00
2022-09-28T14:18:34.047Z,100.00
2022-09-28T14:21:29.343Z,100.00
2022-09-28T14:24:33.095Z,99.91
2022-09-28T14:27:56.604Z,99.88
2022-09-28T14:30:46.326Z,99.51
2022-09-28T14:33:24.225Z,99.97
2022-09-28T14:36:29.226Z,100.00
2022-09-28T14:39:19.699Z,100.00
2022-09-28T14:41:52.945Z,100.00
2022-09-28T14:44:25.454Z,100.00
2022-09-28T14:47:12.000Z,100.00
2022-09-28T14:49:47.836Z,100.00
2022-09-28T14:52:24.692Z,99.49
2022-09-28T14:54:58.047Z,99.93
2022-09-28T14:57:31.322Z,100.00
2022-09-28T15:00:07.286Z,99.70
2022-09-28T15:02:39.880Z,99.40
2022-09-28T15:05:26.109Z,99.15
2022-09-28T15:08:00.706Z,99.47
2022-09-28T15:10:37.176Z,99.59
2022-09-28T15:13:24.073Z,99.79
2022-09-28T15:16:04.311Z,100.00
2022-09-28T15:19:29.818Z,100.00
2022-09-28T15:22:02.278Z,100.00
2022-09-28T15:24:36.389Z,100.00
2022-09-28T15:27:19.285Z,100.00
2022-09-28T15:30:02.453Z,100.00
2022-09-28T15:32:35.422Z,100.00
2022-09-28T15:35:31.378Z,100.00
2022-09-28T15:38:05.627Z,100.00
2022-09-28T15:40:43.602Z,100.00
2022-09-28T15:43:31.635Z,100.00
2022-09-28T15:46:18.605Z,100.00
2022-09-28T15:48:56.656Z,100.00
2022-09-28T15:51:29.494Z,100.00
2022-09-28T15:54:09.504Z,100.00
2022-09-28T15:59:47.217Z,100.00
2022-09-28T16:02:23.233Z,100.00
2022-09-28T16:05:01.269Z,100.00
2022-09-28T16:07:42.922Z,100.00
2022-09-28T16:10:21.420Z,100.00
2022-09-28T16:13:08.738Z,100.00
2022-09-28T16:15:41.297Z,100.00
2022-09-28T16:18:20.745Z,100.00
2022-09-28T16:23:39.128Z,100.00
2022-09-28T16:26:16.934Z,100.00
2022-09-28T16:28:52.091Z,100.00
2022-09-28T16:31:30.858Z,100.00
2022-09-28T16:34:21.334Z,100.00
2022-09-28T16:36:55.042Z,100.00
2022-09-28T16:39:28.037Z,100.00
2022-09-28T16:42:03.255Z,100.00
2022-09-28T16:44:37.084Z,100.00
2022-09-28T16:47:09.635Z,100.00
2022-09-28T16:49:42.505Z,100.00
2022-09-28T16:52:16.950Z,100.00
2022-09-28T16:55:28.982Z,100.00
2022-09-28T16:58:08.481Z,100.00
2022-09-28T17:00:46.883Z,100.00
2022-09-28T17:03:20.850Z,100.00
2022-09-28T17:05:56.387Z,100.00
2022-09-28T17:08:29.480Z,100.00
2022-09-28T17:11:16.915Z,100.00
2022-09-28T17:13:40.159Z,100.00
2022-09-28T17:16:18.113Z,100.00
2022-09-28T17:18:51.065Z,100.00
2022-09-28T17:21:24.060Z,100.00
2022-09-28T17:23:56.732Z,100.00
2022-09-28T17:26:35.014Z,100.00
2022-09-28T17:29:09.353Z,100.00
2022-09-28T17:31:45.870Z,100.00
2022-09-28T17:34:20.219Z,100.00
2022-09-28T17:36:53.862Z,100.00
2022-09-28T17:39:39.608Z,100.00
2022-09-28T17:42:12.740Z,100.00
2022-09-28T17:44:47.130Z,100.00
2022-09-28T17:47:24.481Z,100.00
2022-09-28T17:49:58.931Z,100.00
2022-09-28T17:52:32.492Z,100.00
2022-09-28T17:55:10.781Z,100.00
2022-09-28T17:57:44.097Z,100.00
2022-09-28T18:00:19.401Z,100.00
2022-09-28T18:02:53.223Z,100.00
2022-09-28T18:05:27.233Z,100.00
2022-09-28T18:07:59.536Z,100.00
2022-09-28T18:10:32.908Z,100.00
2022-09-28T18:13:06.688Z,100.00
2022-09-28T18:15:39.403Z,100.00
2022-09-28T18:18:13.276Z,100.00
2022-09-28T18:20:46.391Z,100.00
2022-09-28T18:23:21.101Z,100.00
2022-09-28T18:25:54.260Z,100.00
2022-09-28T18:28:27.665Z,100.00
2022-09-28T18:31:00.585Z,100.00
2022-09-28T18:33:34.839Z,100.00
2022-09-28T18:36:10.344Z,100.00
2022-09-28T18:38:43.768Z,100.00
2022-09-28T18:41:17.226Z,100.00
2022-09-28T18:43:53.308Z,100.00
2022-09-28T18:46:27.751Z,100.00
2022-09-28T18:49:01.229Z,100.00
2022-09-28T18:51:34.346Z,100.00
2022-09-28T18:54:08.408Z,100.00
2022-09-28T18:56:45.145Z,100.00
2022-09-28T18:59:19.184Z,100.00
2022-09-28T19:01:53.139Z,100.00
2022-09-28T19:04:31.400Z,100.00
2022-09-28T19:07:05.050Z,100.00
2022-09-28T19:09:40.041Z,100.00
2022-09-28T19:12:16.333Z,100.00
2022-09-28T19:14:49.487Z,100.00
2022-09-28T19:17:22.719Z,100.00
2022-09-28T19:19:57.389Z,100.00
2022-09-28T19:22:31.504Z,100.00
2022-09-28T19:25:05.022Z,100.00
2022-09-28T19:27:38.015Z,100.00
2022-09-28T19:30:12.313Z,100.00
2022-09-28T19:32:47.820Z,100.00
2022-09-28T19:35:20.432Z,100.00
2022-09-28T19:37:53.079Z,100.00
2022-09-28T19:40:25.976Z,100.00
2022-09-28T19:43:00.074Z,100.00
2022-09-28T19:45:32.906Z,100.00
2022-09-28T19:48:05.451Z,100.00
2022-09-28T19:50:40.063Z,100.00
2022-09-28T19:53:13.960Z,100.00
2022-09-28T19:56:09.387Z,100.00
2022-09-28T19:58:42.802Z,100.00
2022-09-28T20:01:15.356Z,100.00
2022-09-28T20:03:47.947Z,100.00
2022-09-28T20:06:21.427Z,100.00
2022-09-28T20:08:54.473Z,100.00
2022-09-28T20:11:27.945Z,100.00
2022-09-28T20:14:02.193Z,100.00
2022-09-28T20:16:36.871Z,100.00
2022-09-28T20:19:10.311Z,100.00
2022-09-28T20:21:46.090Z,100.00
2022-09-28T20:24:18.717Z,100.00
2022-09-28T20:26:51.845Z,100.00
2022-09-28T20:29:24.618Z,100.00
2022-09-28T20:31:57.930Z,100.00
2022-09-28T20:34:31.878Z,100.00
2022-09-28T20:37:04.678Z,100.00
2022-09-28T20:39:40.433Z,100.00
2022-09-28T20:42:11.875Z,100.00
2022-09-28T20:44:45.516Z,100.00
2022-09-28T20:47:19.479Z,100.00
2022-09-28T20:49:52.170Z,100.00
2022-09-28T20:52:25.212Z,100.00
2022-09-28T20:54:59.202Z,100.00
2022-09-28T20:57:31.949Z,100.00
2022-09-28T21:00:05.312Z,100.00
2022-09-28T21:02:37.987Z,100.00
2022-09-28T21:05:11.072Z,100.00
2022-09-28T21:07:45.222Z,100.00
2022-09-28T21:10:17.902Z,100.00
2022-09-28T21:12:52.910Z,100.00
2022-09-28T21:15:25.501Z,100.00
2022-09-28T21:17:58.248Z,100.00
2022-09-28T21:20:31.685Z,100.00
2022-09-28T21:23:04.131Z,100.00
2022-09-28T21:25:36.484Z,100.00
2022-09-28T21:28:09.757Z,100.00
2022-09-28T21:31:04.572Z,100.00
2022-09-28T21:33:37.633Z,100.00
2022-09-28T21:36:12.207Z,100.00
2022-09-28T21:38:44.794Z,100.00
2022-09-28T21:41:17.447Z,100.00
2022-09-28T21:43:50.200Z,100.00
2022-09-28T21:46:23.071Z,100.00
2022-09-28T21:48:55.964Z,100.00
2022-09-28T21:51:28.957Z,100.00
2022-09-28T21:54:01.366Z,100.00
2022-09-28T21:56:35.423Z,100.00
2022-09-28T21:59:08.376Z,100.00
2022-09-28T22:01:43.003Z,100.00
2022-09-28T22:04:15.773Z,100.00
2022-09-28T22:06:48.498Z,100.00
2022-09-28T22:09:22.701Z,100.00
2022-09-28T22:11:55.168Z,100.00
2022-09-28T22:14:27.783Z,100.00
2022-09-28T22:17:00.271Z,100.00
2022-09-28T22:19:32.851Z,100.00
2022-09-28T22:22:05.839Z,100.00
2022-09-28T22:24:38.749Z,100.00
2022-09-28T22:27:11.294Z,100.00
2022-09-28T22:29:44.786Z,100.00
2022-09-28T22:32:17.118Z,100.00
2022-09-28T22:34:50.714Z,100.00
2022-09-28T22:37:23.083Z,100.00
2022-09-28T22:39:55.765Z,100.00
2022-09-28T22:42:29.676Z,100.00
2022-09-28T22:45:02.740Z,100.00
2022-09-28T22:47:35.763Z,100.00
2022-09-28T22:50:08.959Z,100.00
2022-09-28T22:52:41.776Z,100.00
2022-09-28T22:55:14.409Z,100.00
2022-09-28T22:57:47.277Z,100.00
2022-09-28T23:00:19.979Z,100.00
2022-09-28T23:02:53.781Z,100.00
2022-09-28T23:05:26.341Z,100.00
2022-09-28T23:07:59.010Z,100.00
2022-09-28T23:10:31.677Z,100.00
2022-09-28T23:13:04.084Z,100.00
2022-09-28T23:15:36.585Z,100.00
2022-09-28T23:18:09.040Z,100.00
2022-09-28T23:20:43.895Z,100.00
2022-09-28T23:23:16.210Z,100.00
2022-09-28T23:25:48.544Z,100.00
2022-09-28T23:28:22.061Z,100.00
2022-09-28T23:30:55.597Z,100.00
2022-09-28T23:33:28.380Z,100.00
2022-09-28T23:36:02.851Z,100.00
2022-09-28T23:38:36.657Z,100.00
2022-09-28T23:41:09.872Z,100.00
2022-09-28T23:43:43.660Z,100.00
2022-09-28T23:46:20.505Z,100.00
2022-09-28T23:48:51.479Z,100.00
2022-09-28T23:51:24.529Z,100.00
2022-09-28T23:53:57.014Z,100.00
2022-09-28T23:56:29.779Z,100.00
2022-09-28T23:59:02.911Z,100.00
